Time;durP1;ratioP1;P1;durP2;ratioP2;P2;SDS_P1;SDS_P2;PMS_P1;PMS_P2;Temp;Humidity;BMP_temperature;BMP_pressure;BME280_temperature;BME280_humidity;BME280_pressure;Samples;Min_cycle;Max_cycle;Signal;HPM_P1;HPM_P2
2022/10/17 00:01:33;;;;;;;3.03;2.20;;;15.90;99.90;;;;;;4193835;28;20230;-78
2022/10/17 00:03:37;;;;;;;2.57;2.00;;;15.80;99.90;;;;;;4193273;28;20309;-78
2022/10/17 00:05:40;;;;;;;2.83;2.20;;;15.80;99.90;;;;;;4186082;28;20252;-78
2022/10/17 00:07:42;;;;;;;2.67;1.90;;;15.80;99.90;;;;;;4187613;28;20616;-78
2022/10/17 00:09:45;;;;;;;2.60;1.87;;;15.80;99.90;;;;;;4183403;28;20210;-78
2022/10/17 00:11:47;;;;;;;2.20;1.77;;;15.80;99.90;;;;;;4187189;28;20238;-78
2022/10/17 00:13:50;;;;;;;2.70;1.90;;;15.80;99.90;;;;;;4185546;28;20217;-78
2022/10/17 00:15:54;;;;;;;3.10;2.00;;;15.70;99.90;;;;;;4190192;28;20228;-78
2022/10/17 00:17:56;;;;;;;2.27;1.80;;;15.70;99.90;;;;;;4188790;28;20213;-78
2022/10/17 00:19:58;;;;;;;2.60;2.20;;;15.70;99.90;;;;;;4183946;28;20202;-78
2022/10/17 00:22:00;;;;;;;2.63;1.60;;;15.70;99.90;;;;;;4179854;28;20286;-78
2022/10/17 00:24:02;;;;;;;2.70;2.20;;;15.70;99.90;;;;;;4185006;28;20248;-78
2022/10/17 00:26:06;;;;;;;2.27;1.87;;;15.70;99.90;;;;;;4182056;28;20254;-78
2022/10/17 00:28:09;;;;;;;2.17;1.70;;;15.70;99.90;;;;;;4188197;28;20240;-79
2022/10/17 00:30:13;;;;;;;2.10;1.90;;;15.70;99.90;;;;;;4187132;28;20724;-78
2022/10/17 00:32:17;;;;;;;2.20;1.67;;;15.70;99.90;;;;;;4184458;28;20901;-78
2022/10/17 00:34:19;;;;;;;3.63;1.80;;;15.70;99.90;;;;;;4183547;28;20214;-78
2022/10/17 00:36:22;;;;;;;2.90;1.87;;;15.70;99.90;;;;;;4181140;28;20230;-78
2022/10/17 00:38:24;;;;;;;1.80;1.60;;;15.70;99.90;;;;;;4187759;28;20306;-78
2022/10/17 00:40:26;;;;;;;1.93;1.60;;;15.70;99.90;;;;;;4189221;28;20220;-78
2022/10/17 00:42:28;;;;;;;2.73;1.83;;;15.70;99.90;;;;;;4187107;28;20751;-78
2022/10/17 00:45:07;;;;;;;2.93;2.13;;;15.70;99.90;;;;;;4186242;28;20717;-78
2022/10/17 00:47:14;;;;;;;2.77;1.83;;;15.70;99.90;;;;;;4184604;28;20305;-78
2022/10/17 00:49:17;;;;;;;3.33;2.13;;;15.70;99.90;;;;;;4186828;28;20201;-78
2022/10/17 00:51:22;;;;;;;1.83;1.60;;;15.70;99.90;;;;;;4193375;28;20705;-79
2022/10/17 00:53:24;;;;;;;2.67;1.97;;;15.70;99.90;;;;;;4183412;28;20274;-78
2022/10/17 00:55:30;;;;;;;3.33;2.37;;;15.70;99.90;;;;;;4185042;28;20227;-77
2022/10/17 00:57:32;;;;;;;3.90;2.17;;;15.60;99.90;;;;;;4187530;28;20237;-78
2022/10/17 00:59:37;;;;;;;2.23;1.87;;;15.60;99.90;;;;;;4184733;28;20283;-79
2022/10/17 01:01:40;;;;;;;2.30;1.77;;;15.60;99.90;;;;;;4178850;28;20378;-78
2022/10/17 01:03:41;;;;;;;3.90;2.30;;;15.60;99.90;;;;;;4179472;28;20215;-78
2022/10/17 01:05:46;;;;;;;3.93;2.20;;;15.60;99.90;;;;;;4183301;28;20211;-78
2022/10/17 01:07:50;;;;;;;2.33;1.90;;;15.60;99.90;;;;;;4187878;28;20217;-79
2022/10/17 01:09:53;;;;;;;3.30;2.10;;;15.60;99.90;;;;;;4187242;28;20612;-78
2022/10/17 01:12:03;;;;;;;3.10;2.10;;;15.60;99.90;;;;;;4191287;28;20231;-78
2022/10/17 01:14:10;;;;;;;2.20;1.77;;;15.50;99.90;;;;;;4187206;28;20314;-78
2022/10/17 01:16:18;;;;;;;2.40;1.77;;;15.60;99.90;;;;;;4186851;28;20215;-79
2022/10/17 01:18:32;;;;;;;2.73;1.90;;;15.60;99.90;;;;;;4184284;28;20211;-77
2022/10/17 01:20:56;;;;;;;2.13;1.90;;;15.60;99.90;;;;;;4185772;28;20240;-78
2022/10/17 01:23:16;;;;;;;2.03;1.80;;;15.50;99.90;;;;;;4188164;28;20205;-79
2022/10/17 01:25:29;;;;;;;1.87;1.53;;;15.50;99.90;;;;;;4187922;28;20196;-79
2022/10/17 01:27:59;;;;;;;2.40;1.90;;;15.50;99.90;;;;;;4183255;28;20211;-78
2022/10/17 01:30:28;;;;;;;3.10;1.80;;;15.50;99.90;;;;;;4184897;28;20214;-78
2022/10/17 01:32:38;;;;;;;2.77;2.00;;;15.50;99.90;;;;;;4186051;28;20331;-78
2022/10/17 01:34:47;;;;;;;2.60;1.73;;;15.40;99.90;;;;;;4183543;28;20234;-78
2022/10/17 01:36:52;;;;;;;3.23;2.00;;;15.60;99.90;;;;;;4187841;28;20225;-78
2022/10/17 01:39:02;;;;;;;2.67;1.93;;;15.40;99.90;;;;;;4182436;28;20205;-79
2022/10/17 01:41:12;;;;;;;3.27;1.97;;;15.40;99.90;;;;;;4193175;28;20318;-79
2022/10/17 01:43:20;;;;;;;3.03;1.90;;;15.50;99.90;;;;;;4184604;28;20247;-78
2022/10/17 01:45:29;;;;;;;3.17;2.03;;;15.40;99.90;;;;;;4188738;28;20205;-78
2022/10/17 01:47:34;;;;;;;2.47;1.90;;;15.40;99.90;;;;;;4185418;28;20317;-78
2022/10/17 01:49:40;;;;;;;3.13;2.10;;;15.40;99.90;;;;;;4182466;28;20240;-77
2022/10/17 01:51:46;;;;;;;2.53;2.00;;;15.40;99.90;;;;;;4181597;28;20246;-77
2022/10/17 01:53:52;;;;;;;2.43;1.90;;;15.40;99.90;;;;;;4187956;28;20239;-77
2022/10/17 01:55:58;;;;;;;2.20;1.77;;;15.50;99.90;;;;;;4198916;28;20274;-78
2022/10/17 01:58:05;;;;;;;3.13;2.10;;;15.40;99.90;;;;;;4181979;28;20623;-77
2022/10/17 02:00:14;;;;;;;2.77;1.90;;;15.40;99.90;;;;;;4185483;28;20975;-77
2022/10/17 02:02:18;;;;;;;3.50;1.90;;;15.40;99.90;;;;;;4184115;28;20222;-78
2022/10/17 02:04:22;;;;;;;2.50;1.90;;;15.40;99.90;;;;;;4187637;28;20205;-78
2022/10/17 02:06:24;;;;;;;4.33;2.03;;;15.40;99.90;;;;;;4178490;28;20239;-79
2022/10/17 02:08:27;;;;;;;2.70;1.63;;;15.40;99.90;;;;;;4185745;28;20210;-78
2022/10/17 02:10:36;;;;;;;3.50;2.10;;;15.40;99.90;;;;;;4184266;28;20245;-77
2022/10/17 02:12:48;;;;;;;2.67;1.97;;;15.40;99.90;;;;;;4186210;28;20213;-78
2022/10/17 02:15:01;;;;;;;3.60;1.77;;;15.40;99.90;;;;;;4186591;28;20234;-78
2022/10/17 02:17:13;;;;;;;3.10;1.90;;;15.30;99.90;;;;;;4185536;28;20734;-78
2022/10/17 02:19:30;;;;;;;2.20;1.80;;;15.30;99.90;;;;;;4184096;28;20231;-78
2022/10/17 02:21:38;;;;;;;2.47;1.97;;;15.30;99.90;;;;;;4193085;28;20340;-77
2022/10/17 02:23:50;;;;;;;2.90;2.10;;;15.30;99.90;;;;;;4185247;28;20209;-79
2022/10/17 02:26:00;;;;;;;3.77;2.43;;;15.30;99.90;;;;;;4185222;28;20207;-79
2022/10/17 02:28:10;;;;;;;2.30;1.90;;;15.30;99.90;;;;;;4189095;28;20231;-78
2022/10/17 02:30:15;;;;;;;2.43;2.00;;;15.30;99.90;;;;;;4189098;28;20202;-78
2022/10/17 02:32:24;;;;;;;3.47;2.30;;;15.30;99.90;;;;;;4189373;28;20328;-78
2022/10/17 02:34:31;;;;;;;3.17;1.93;;;15.30;99.90;;;;;;4188729;28;20686;-78
2022/10/17 02:36:39;;;;;;;2.90;2.27;;;15.30;99.90;;;;;;4184979;28;20304;-78
2022/10/17 02:38:42;;;;;;;2.90;1.87;;;15.30;99.90;;;;;;4185015;28;20214;-78
2022/10/17 02:40:46;;;;;;;2.70;2.10;;;15.20;99.90;;;;;;4185511;28;20207;-78
2022/10/17 02:42:49;;;;;;;2.30;1.80;;;15.30;99.90;;;;;;4190033;28;20656;-78
2022/10/17 02:44:54;;;;;;;5.90;2.20;;;15.30;99.90;;;;;;4188683;28;20205;-77
2022/10/17 02:47:03;;;;;;;4.47;2.30;;;15.30;99.90;;;;;;4190308;28;20951;-78
2022/10/17 02:49:13;;;;;;;3.23;2.20;;;15.30;99.90;;;;;;4188592;28;20205;-78
2022/10/17 02:51:23;;;;;;;3.07;2.27;;;15.30;99.90;;;;;;4188310;28;20253;-77
2022/10/17 02:53:32;;;;;;;3.07;2.37;;;15.30;99.90;;;;;;4188112;28;20220;-77
2022/10/17 02:55:39;;;;;;;3.13;2.40;;;15.30;99.90;;;;;;4180366;28;20300;-77
2022/10/17 02:57:46;;;;;;;3.70;2.43;;;15.30;99.90;;;;;;4183013;28;20300;-77
2022/10/17 02:59:49;;;;;;;3.87;2.60;;;15.30;99.90;;;;;;4188849;28;20215;-77
2022/10/17 03:01:51;;;;;;;4.47;2.57;;;15.30;99.90;;;;;;4188024;28;20263;-78
2022/10/17 03:04:05;;;;;;;3.67;2.50;;;15.30;99.90;;;;;;4182811;28;20298;-78
2022/10/17 03:06:06;;;;;;;3.03;2.30;;;15.30;99.90;;;;;;4184928;28;20823;-77
2022/10/17 03:08:10;;;;;;;3.07;2.40;;;15.40;99.90;;;;;;4188831;28;20309;-78
2022/10/17 03:10:12;;;;;;;3.10;2.40;;;15.40;99.90;;;;;;4185334;28;20212;-78
2022/10/17 03:12:14;;;;;;;3.20;2.20;;;15.30;99.90;;;;;;4191304;28;20258;-78
2022/10/17 03:14:16;;;;;;;3.43;2.30;;;15.30;99.90;;;;;;4185785;28;20242;-78
2022/10/17 03:16:18;;;;;;;3.83;2.30;;;15.30;99.90;;;;;;4184709;28;20221;-77
2022/10/17 03:18:20;;;;;;;3.63;2.40;;;15.30;99.90;;;;;;4186017;28;20206;-78
2022/10/17 03:20:22;;;;;;;3.77;2.47;;;15.30;99.90;;;;;;4185241;28;20215;-78
2022/10/17 03:22:23;;;;;;;3.17;2.37;;;15.30;99.90;;;;;;4179477;28;20766;-78
2022/10/17 03:24:27;;;;;;;3.77;2.60;;;15.30;99.90;;;;;;4188652;28;20216;-78
2022/10/17 03:26:29;;;;;;;4.27;2.37;;;15.30;99.90;;;;;;4185572;28;20300;-78
2022/10/17 03:28:31;;;;;;;3.20;2.47;;;15.30;99.90;;;;;;4187262;28;20685;-77
2022/10/17 03:30:33;;;;;;;8.40;2.20;;;15.40;99.90;;;;;;4189163;28;20212;-77
2022/10/17 03:32:35;;;;;;;5.27;3.27;;;15.30;99.90;;;;;;4187138;28;20229;-77
2022/10/17 03:34:37;;;;;;;4.20;2.97;;;15.30;99.90;;;;;;4188234;28;20756;-78
2022/10/17 03:36:39;;;;;;;4.00;2.17;;;15.30;99.90;;;;;;4187167;28;20231;-78
2022/10/17 03:38:41;;;;;;;4.20;2.30;;;15.30;99.90;;;;;;4185309;28;20760;-78
2022/10/17 03:40:44;;;;;;;5.80;2.23;;;15.30;99.90;;;;;;4186375;28;20299;-77
2022/10/17 03:42:46;;;;;;;2.57;2.13;;;15.40;99.90;;;;;;4187160;28;20226;-78
2022/10/17 03:44:48;;;;;;;3.67;2.50;;;15.40;99.90;;;;;;4180630;28;20707;-78
2022/10/17 03:46:50;;;;;;;2.97;2.27;;;15.30;99.90;;;;;;4188212;28;20221;-78
2022/10/17 03:48:52;;;;;;;3.07;2.50;;;15.30;99.90;;;;;;4190322;28;20303;-79
2022/10/17 03:50:58;;;;;;;3.23;2.30;;;15.30;99.90;;;;;;4186357;28;20256;-78
2022/10/17 03:53:00;;;;;;;3.33;2.33;;;15.30;99.90;;;;;;4191726;28;20202;-78
2022/10/17 03:55:02;;;;;;;3.50;2.43;;;15.30;99.90;;;;;;4190599;28;20236;-78
2022/10/17 03:57:06;;;;;;;3.13;2.30;;;15.30;99.90;;;;;;4188191;28;20249;-78
2022/10/17 03:59:07;;;;;;;4.00;2.60;;;15.40;99.90;;;;;;4186024;28;20671;-78
2022/10/17 04:01:11;;;;;;;2.93;2.07;;;15.30;99.90;;;;;;4188497;28;20671;-78
2022/10/17 04:03:13;;;;;;;5.20;2.23;;;15.40;99.90;;;;;;4191974;28;20290;-78
2022/10/17 04:05:15;;;;;;;4.57;2.60;;;15.40;99.90;;;;;;4189782;28;20212;-77
2022/10/17 04:07:17;;;;;;;2.93;2.30;;;15.30;99.90;;;;;;4184566;28;20260;-77
2022/10/17 04:09:20;;;;;;;4.07;2.50;;;15.30;99.90;;;;;;4194888;28;20595;-78
2022/10/17 04:11:22;;;;;;;4.27;2.40;;;15.30;99.90;;;;;;4179567;28;20240;-78
2022/10/17 04:13:25;;;;;;;3.07;2.33;;;15.30;99.90;;;;;;4188096;28;20221;-78
2022/10/17 04:15:27;;;;;;;3.20;2.20;;;15.40;99.90;;;;;;4187344;28;20231;-78
2022/10/17 04:17:33;;;;;;;2.73;2.20;;;15.40;99.90;;;;;;4188296;28;20374;-78
2022/10/17 04:19:35;;;;;;;5.13;2.20;;;15.40;99.90;;;;;;4187175;28;20221;-79
2022/10/17 04:21:37;;;;;;;2.73;2.07;;;15.40;99.90;;;;;;4186688;28;20882;-77
2022/10/17 04:23:39;;;;;;;3.00;2.10;;;15.40;99.90;;;;;;4188245;28;20205;-77
2022/10/17 04:25:41;;;;;;;3.40;2.70;;;15.30;99.90;;;;;;4183316;28;20754;-78
2022/10/17 04:27:43;;;;;;;2.87;2.33;;;15.30;99.90;;;;;;4183813;28;20212;-79
2022/10/17 04:29:46;;;;;;;2.47;2.10;;;15.30;99.90;;;;;;4181754;28;20212;-77
2022/10/17 04:31:48;;;;;;;4.00;2.50;;;15.30;99.90;;;;;;4184697;28;20287;-78
2022/10/17 04:33:50;;;;;;;3.17;2.20;;;15.30;99.90;;;;;;4186265;28;20702;-78
2022/10/17 04:35:56;;;;;;;3.20;2.40;;;15.30;99.90;;;;;;4186334;28;20216;-78
2022/10/17 04:37:58;;;;;;;4.47;2.50;;;15.30;99.90;;;;;;4185869;28;21218;-78
2022/10/17 04:40:00;;;;;;;4.30;2.80;;;15.30;99.90;;;;;;4183914;28;20251;-78
2022/10/17 04:42:02;;;;;;;4.30;2.50;;;15.30;99.90;;;;;;4187910;28;20240;-77
2022/10/17 04:44:04;;;;;;;3.60;2.30;;;15.30;99.90;;;;;;4185911;28;20234;-78
2022/10/17 04:46:10;;;;;;;4.30;2.70;;;15.30;99.90;;;;;;4191253;28;20270;-78
2022/10/17 04:48:12;;;;;;;5.50;2.30;;;15.30;99.90;;;;;;4189121;28;20201;-77
2022/10/17 04:50:13;;;;;;;3.23;2.40;;;15.20;99.90;;;;;;4189078;28;20303;-78
2022/10/17 04:52:15;;;;;;;4.23;2.30;;;15.30;99.90;;;;;;4188417;28;20275;-76
2022/10/17 04:54:17;;;;;;;3.97;2.17;;;15.20;99.90;;;;;;4194814;28;20206;-77
2022/10/17 04:56:23;;;;;;;3.33;2.50;;;15.20;99.90;;;;;;4187744;28;20266;-77
2022/10/17 04:58:25;;;;;;;3.67;2.10;;;15.20;99.90;;;;;;4188867;28;20294;-76
2022/10/17 05:00:27;;;;;;;3.17;2.20;;;15.20;99.90;;;;;;4189095;28;21127;-77
2022/10/17 05:02:30;;;;;;;2.67;2.13;;;15.20;99.90;;;;;;4188607;28;20260;-78
2022/10/17 05:04:32;;;;;;;3.33;2.10;;;15.20;99.90;;;;;;4191218;28;20301;-78
2022/10/17 05:06:34;;;;;;;5.00;2.50;;;15.20;99.90;;;;;;4184433;28;20217;-78
2022/10/17 05:08:36;;;;;;;3.50;2.37;;;15.20;99.90;;;;;;4184890;28;20204;-77
2022/10/17 05:10:38;;;;;;;3.90;2.20;;;15.20;99.90;;;;;;4188664;28;20215;-78
2022/10/17 05:12:40;;;;;;;3.37;2.10;;;15.20;99.90;;;;;;4189024;28;20232;-77
2022/10/17 05:14:41;;;;;;;3.93;2.30;;;15.20;99.90;;;;;;4186496;28;20300;-78
2022/10/17 05:16:45;;;;;;;3.20;2.27;;;15.10;99.90;;;;;;4186544;28;20312;-79
2022/10/17 05:18:50;;;;;;;4.20;2.23;;;15.10;99.90;;;;;;4186544;28;20674;-78
2022/10/17 05:20:52;;;;;;;3.33;2.30;;;15.10;99.90;;;;;;4191535;28;20226;-78
2022/10/17 05:22:54;;;;;;;3.97;2.10;;;15.10;99.90;;;;;;4189247;28;20691;-78
2022/10/17 05:24:56;;;;;;;2.83;2.30;;;15.00;99.90;;;;;;4189606;28;20204;-78
2022/10/17 05:26:58;;;;;;;2.97;2.07;;;15.10;99.90;;;;;;4191018;28;20243;-78
2022/10/17 05:29:01;;;;;;;2.93;2.37;;;15.10;99.90;;;;;;4186966;28;20213;-77
2022/10/17 05:31:04;;;;;;;4.13;2.37;;;15.00;99.90;;;;;;4188922;28;20262;-78
2022/10/17 05:33:06;;;;;;;4.03;2.70;;;15.00;99.90;;;;;;4190605;28;20254;-78
2022/10/17 05:35:10;;;;;;;3.10;2.10;;;15.00;99.90;;;;;;4188720;28;20640;-78
2022/10/17 05:37:12;;;;;;;3.70;2.00;;;15.00;99.90;;;;;;4187637;28;20274;-78
2022/10/17 05:39:18;;;;;;;3.10;2.17;;;15.00;99.90;;;;;;4184723;28;20646;-78
2022/10/17 05:41:20;;;;;;;3.27;2.30;;;15.00;99.90;;;;;;4188297;28;20243;-78
2022/10/17 05:43:22;;;;;;;4.30;2.30;;;15.00;99.90;;;;;;4188255;28;20208;-78
2022/10/17 05:45:24;;;;;;;4.03;2.43;;;15.00;99.90;;;;;;4186108;28;20619;-78
2022/10/17 05:47:26;;;;;;;5.27;2.40;;;15.00;99.90;;;;;;4187494;28;20292;-78
2022/10/17 05:49:28;;;;;;;4.33;2.20;;;14.90;99.90;;;;;;4180977;28;22014;-78
2022/10/17 05:51:33;;;;;;;2.73;2.10;;;14.90;99.90;;;;;;4184420;28;20262;-78
2022/10/17 05:53:36;;;;;;;4.27;2.10;;;15.00;99.90;;;;;;4182406;28;20223;-78
2022/10/17 05:55:38;;;;;;;3.17;2.20;;;14.90;99.90;;;;;;4187553;28;20225;-78
2022/10/17 05:57:40;;;;;;;3.40;2.30;;;14.90;99.90;;;;;;4190076;28;20788;-78
2022/10/17 05:59:42;;;;;;;4.53;2.47;;;14.90;99.90;;;;;;4185059;28;20235;-78
2022/10/17 06:01:44;;;;;;;2.60;2.10;;;14.90;99.90;;;;;;4190730;28;20226;-78
2022/10/17 06:03:46;;;;;;;5.60;2.40;;;14.90;99.90;;;;;;4191539;28;20305;-78
2022/10/17 06:05:48;;;;;;;3.00;2.13;;;14.90;99.90;;;;;;4189227;28;20217;-78
2022/10/17 06:07:52;;;;;;;2.67;1.87;;;14.90;99.90;;;;;;4190732;28;20208;-78
2022/10/17 06:09:54;;;;;;;2.47;2.10;;;14.90;99.90;;;;;;4194015;28;20207;-78
2022/10/17 06:11:56;;;;;;;3.00;2.10;;;14.90;99.90;;;;;;4186456;28;20699;-78
2022/10/17 06:13:58;;;;;;;3.13;2.13;;;14.90;99.90;;;;;;4191337;28;20653;-78
2022/10/17 06:15:59;;;;;;;2.80;2.23;;;14.90;99.90;;;;;;4191172;28;20204;-78
2022/10/17 06:18:01;;;;;;;3.53;2.20;;;14.90;99.90;;;;;;4186571;28;20810;-78
2022/10/17 06:20:04;;;;;;;4.10;2.17;;;15.00;99.90;;;;;;4192089;28;20229;-78
2022/10/17 06:22:06;;;;;;;3.33;2.23;;;15.00;99.90;;;;;;4190609;28;20732;-78
2022/10/17 06:24:09;;;;;;;4.60;2.23;;;15.00;99.90;;;;;;4192069;28;20243;-78
2022/10/17 06:26:11;;;;;;;5.13;2.53;;;15.10;99.90;;;;;;4187919;28;20204;-78
2022/10/17 06:28:13;;;;;;;2.40;1.80;;;15.10;99.90;;;;;;4183034;28;20736;-78
2022/10/17 06:30:18;;;;;;;3.47;1.90;;;15.00;99.90;;;;;;4184339;28;20290;-78
2022/10/17 06:32:23;;;;;;;5.20;2.47;;;15.10;99.90;;;;;;4191523;28;20732;-78
2022/10/17 06:34:25;;;;;;;2.50;2.00;;;15.10;99.90;;;;;;4190893;28;20244;-78
2022/10/17 06:36:27;;;;;;;4.47;2.30;;;15.10;99.90;;;;;;4195527;28;20235;-78
2022/10/17 06:38:29;;;;;;;3.40;2.20;;;15.10;99.90;;;;;;4187769;28;20592;-78
2022/10/17 06:40:32;;;;;;;3.30;1.97;;;15.20;99.90;;;;;;4189341;28;20226;-78
2022/10/17 06:42:34;;;;;;;2.73;2.10;;;15.20;99.90;;;;;;4192060;28;20254;-78
2022/10/17 06:44:36;;;;;;;4.00;2.03;;;15.30;99.90;;;;;;4188429;28;20897;-78
2022/10/17 06:46:38;;;;;;;6.47;2.00;;;15.30;99.90;;;;;;4196065;28;20210;-78
2022/10/17 06:48:40;;;;;;;3.03;1.90;;;15.30;99.90;;;;;;4187927;28;20379;-78
2022/10/17 06:50:42;;;;;;;3.50;1.87;;;15.30;99.90;;;;;;4192999;28;20205;-78
2022/10/17 06:52:44;;;;;;;2.37;1.80;;;15.40;99.90;;;;;;4192113;28;20200;-78
2022/10/17 06:54:46;;;;;;;3.90;1.97;;;15.40;99.90;;;;;;4189171;28;20227;-78
2022/10/17 06:56:49;;;;;;;4.60;2.20;;;15.40;99.90;;;;;;4191954;28;20476;-78
2022/10/17 06:58:51;;;;;;;4.10;1.80;;;15.50;99.90;;;;;;4191088;28;20222;-78
2022/10/17 07:00:57;;;;;;;3.50;2.00;;;15.50;99.90;;;;;;4191247;28;20198;-78
2022/10/17 07:02:59;;;;;;;2.53;1.60;;;15.50;99.90;;;;;;4190049;28;20293;-78
2022/10/17 07:05:01;;;;;;;3.77;2.20;;;15.60;99.90;;;;;;4190675;28;20206;-78
2022/10/17 07:07:03;;;;;;;3.50;1.90;;;15.60;99.90;;;;;;4189857;28;20209;-78
2022/10/17 07:09:06;;;;;;;2.57;1.73;;;15.70;99.90;;;;;;4193912;28;20711;-78
2022/10/17 07:11:12;;;;;;;2.60;1.73;;;15.70;99.90;;;;;;4190560;28;20228;-78
2022/10/17 07:13:16;;;;;;;3.47;1.87;;;15.70;99.90;;;;;;4195314;28;20717;-78
2022/10/17 07:15:18;;;;;;;2.17;1.80;;;15.80;99.90;;;;;;4193188;28;20225;-78
2022/10/17 07:17:20;;;;;;;2.63;1.87;;;15.80;99.90;;;;;;4192229;28;20292;-78
2022/10/17 07:19:22;;;;;;;2.33;1.77;;;15.90;99.90;;;;;;4192905;28;20205;-79
2022/10/17 07:21:24;;;;;;;4.90;1.70;;;15.90;99.90;;;;;;4191212;28;20230;-78
2022/10/17 07:23:26;;;;;;;2.37;1.60;;;16.00;99.90;;;;;;4188017;28;20629;-78
2022/10/17 07:25:28;;;;;;;3.37;1.70;;;16.00;99.90;;;;;;4191011;28;20201;-79
2022/10/17 07:27:30;;;;;;;3.47;1.80;;;16.10;99.90;;;;;;4188454;28;20655;-78
2022/10/17 07:29:33;;;;;;;3.80;1.80;;;16.10;99.90;;;;;;4189009;28;20202;-78
2022/10/17 07:31:35;;;;;;;2.80;1.70;;;16.20;99.90;;;;;;4184513;28;20818;-79
2022/10/17 07:33:37;;;;;;;2.77;2.00;;;16.30;99.90;;;;;;4188309;28;20238;-78
2022/10/17 07:35:40;;;;;;;2.10;1.60;;;16.30;99.90;;;;;;4190724;28;20210;-78
2022/10/17 07:37:42;;;;;;;2.50;1.70;;;16.40;99.90;;;;;;4189669;28;20233;-78
2022/10/17 07:39:44;;;;;;;2.80;1.97;;;16.40;99.90;;;;;;4193661;28;20232;-82
2022/10/17 07:41:46;;;;;;;3.67;1.80;;;16.50;99.90;;;;;;4194340;28;20699;-81
2022/10/17 07:43:48;;;;;;;1.90;1.57;;;16.60;99.90;;;;;;4194841;28;20225;-79
2022/10/17 07:45:51;;;;;;;3.03;1.60;;;16.70;99.90;;;;;;4194774;28;20226;-81
2022/10/17 07:47:56;;;;;;;2.10;1.43;;;16.70;99.90;;;;;;4193416;28;20204;-79
2022/10/17 07:49:58;;;;;;;2.30;1.60;;;16.70;99.90;;;;;;4189442;28;20212;-80
2022/10/17 07:51:59;;;;;;;3.83;2.17;;;16.80;99.90;;;;;;4190605;28;20246;-79
2022/10/17 07:54:01;;;;;;;2.90;1.70;;;16.80;99.90;;;;;;4192046;28;20209;-79
2022/10/17 07:56:05;;;;;;;2.57;1.60;;;16.90;99.90;;;;;;4195932;28;20949;-80
2022/10/17 07:58:11;;;;;;;3.37;1.60;;;16.90;99.90;;;;;;4189227;28;20262;-79
2022/10/17 08:00:13;;;;;;;3.00;1.53;;;17.00;99.90;;;;;;4191846;28;20234;-79
2022/10/17 08:02:22;;;;;;;2.17;1.57;;;17.00;99.90;;;;;;4194230;28;20229;-78
2022/10/17 08:04:24;;;;;;;2.27;1.30;;;17.00;99.90;;;;;;4190450;28;20251;-79
2022/10/17 08:06:26;;;;;;;3.50;1.83;;;17.10;99.90;;;;;;4188951;28;20239;-79
2022/10/17 08:08:28;;;;;;;3.07;1.80;;;17.10;99.90;;;;;;4191705;28;20325;-79
2022/10/17 08:10:30;;;;;;;5.30;1.70;;;17.20;99.90;;;;;;4188321;28;20240;-79
2022/10/17 08:12:33;;;;;;;4.57;1.90;;;17.20;99.90;;;;;;4187090;28;20220;-79
2022/10/17 08:14:35;;;;;;;2.03;1.60;;;17.20;99.90;;;;;;4191918;28;20634;-80
2022/10/17 08:16:37;;;;;;;2.70;1.60;;;17.20;99.90;;;;;;4189316;28;20208;-80
2022/10/17 08:18:42;;;;;;;2.97;1.67;;;17.30;99.90;;;;;;4197143;28;20227;-80
2022/10/17 08:20:44;;;;;;;3.10;1.80;;;17.30;99.90;;;;;;4193308;28;20204;-79
2022/10/17 08:22:52;;;;;;;3.63;1.70;;;17.30;99.90;;;;;;4195120;28;20199;-80
2022/10/17 08:24:54;;;;;;;2.67;1.70;;;17.30;99.90;;;;;;4190384;28;20210;-80
2022/10/17 08:26:57;;;;;;;2.23;1.70;;;17.40;99.90;;;;;;4191030;28;20234;-80
2022/10/17 08:28:59;;;;;;;2.37;1.77;;;17.30;99.90;;;;;;4199208;28;20219;-79
2022/10/17 08:31:05;;;;;;;4.63;1.80;;;17.40;99.90;;;;;;4195501;28;20232;-79
2022/10/17 08:33:07;;;;;;;2.33;1.70;;;17.40;99.90;;;;;;4193536;28;20236;-80
2022/10/17 08:35:10;;;;;;;3.53;1.70;;;17.40;99.90;;;;;;4195391;28;20230;-78
2022/10/17 08:37:13;;;;;;;2.13;1.60;;;17.50;99.90;;;;;;4196338;28;20554;-79
2022/10/17 08:39:15;;;;;;;5.53;1.93;;;17.60;99.90;;;;;;4190657;28;20227;-79
2022/10/17 08:41:33;;;;;;;2.83;1.80;;;17.60;99.90;;;;;;4190287;28;20232;-78
2022/10/17 08:43:49;;;;;;;1.73;1.50;;;17.70;99.90;;;;;;4194271;28;20222;-79
2022/10/17 08:45:54;;;;;;;6.13;1.93;;;17.70;99.90;;;;;;4198085;28;20644;-80
2022/10/17 08:48:00;;;;;;;2.20;1.60;;;17.80;99.90;;;;;;4194404;28;20210;-80
2022/10/17 08:50:04;;;;;;;2.97;1.80;;;17.90;99.90;;;;;;4199224;28;20212;-84
2022/10/17 08:52:22;;;;;;;2.13;1.60;;;17.90;99.90;;;;;;4197389;28;20295;-84
2022/10/17 08:54:32;;;;;;;3.67;1.53;;;18.00;99.90;;;;;;4190735;28;20652;-80
2022/10/17 08:56:40;;;;;;;1.90;1.33;;;18.10;99.90;;;;;;4192170;28;20254;-85
2022/10/17 08:58:42;;;;;;;2.37;1.40;;;18.10;99.90;;;;;;4193527;28;20213;-83
2022/10/17 09:00:49;;;;;;;3.20;2.20;;;18.20;99.90;;;;;;4194157;28;20696;-83
2022/10/17 09:03:04;;;;;;;3.67;1.67;;;18.30;99.90;;;;;;4193797;28;20196;-84
2022/10/17 09:05:24;;;;;;;5.80;1.67;;;18.40;99.90;;;;;;4191595;28;20216;-81
2022/10/17 09:07:34;;;;;;;4.20;1.50;;;18.50;99.90;;;;;;4187259;28;20297;-81
2022/10/17 09:09:47;;;;;;;3.50;1.73;;;18.50;99.90;;;;;;4193415;28;20715;-81
2022/10/17 09:12:02;;;;;;;3.53;1.90;;;18.50;99.90;;;;;;4191297;28;20232;-81
2022/10/17 09:14:18;;;;;;;3.37;1.77;;;18.60;99.90;;;;;;4193181;28;20198;-81
2022/10/17 09:16:43;;;;;;;2.87;1.60;;;18.60;99.90;;;;;;4192175;28;20259;-81
2022/10/17 09:18:49;;;;;;;3.77;1.67;;;18.70;99.90;;;;;;4194542;28;20799;-81
2022/10/17 09:20:53;;;;;;;2.80;1.57;;;18.70;99.90;;;;;;4192126;28;20224;-81
2022/10/17 09:23:00;;;;;;;2.10;1.57;;;18.80;99.90;;;;;;4189732;28;20213;-80
2022/10/17 09:25:06;;;;;;;2.70;1.83;;;18.80;99.90;;;;;;4209334;28;20220;-80
2022/10/17 09:27:20;;;;;;;3.93;1.90;;;18.80;99.90;;;;;;4189726;28;20594;-80
2022/10/17 09:29:24;;;;;;;2.30;1.50;;;18.90;99.90;;;;;;4194695;28;20647;-80
2022/10/17 09:31:30;;;;;;;2.43;1.60;;;18.90;99.90;;;;;;4189655;28;20221;-80
2022/10/17 09:33:37;;;;;;;2.50;1.70;;;19.00;99.90;;;;;;4191985;28;20610;-80
2022/10/17 09:35:41;;;;;;;3.40;1.97;;;19.00;99.90;;;;;;4188020;28;20200;-79
2022/10/17 09:37:45;;;;;;;2.83;1.83;;;19.10;99.90;;;;;;4191647;28;20209;-80
2022/10/17 09:39:48;;;;;;;4.60;1.77;;;19.10;99.90;;;;;;4190431;28;20254;-81
2022/10/17 09:41:52;;;;;;;2.27;1.60;;;19.20;99.90;;;;;;4190985;28;20279;-81
2022/10/17 09:43:56;;;;;;;3.07;1.80;;;19.30;99.90;;;;;;4190224;28;20629;-82
2022/10/17 09:46:07;;;;;;;4.23;1.77;;;19.40;99.90;;;;;;4189650;28;20224;-81
2022/10/17 09:48:19;;;;;;;3.23;1.83;;;19.50;99.90;;;;;;4194947;28;20288;-81
2022/10/17 09:50:25;;;;;;;5.17;1.90;;;19.50;99.90;;;;;;4209551;28;20865;-81
2022/10/17 09:52:33;;;;;;;2.33;1.60;;;19.60;99.90;;;;;;4193818;28;20266;-81
2022/10/17 09:54:43;;;;;;;5.50;1.87;;;19.70;99.90;;;;;;4191364;28;20209;-81
2022/10/17 09:57:00;;;;;;;2.00;1.60;;;19.90;99.90;;;;;;4210867;28;20634;-80
2022/10/17 09:59:02;;;;;;;2.67;1.50;;;20.00;99.90;;;;;;4192561;28;20603;-82
2022/10/17 10:01:17;;;;;;;3.43;1.80;;;20.00;99.90;;;;;;4194200;28;20210;-81
2022/10/17 10:03:20;;;;;;;6.03;1.63;;;20.10;99.90;;;;;;4195631;28;20198;-80
2022/10/17 10:05:22;;;;;;;3.40;1.70;;;20.20;99.90;;;;;;4193560;28;20229;-80
2022/10/17 10:07:25;;;;;;;3.47;1.70;;;20.40;99.90;;;;;;4196613;28;20218;-80
2022/10/17 10:09:30;;;;;;;2.60;1.70;;;20.50;99.90;;;;;;4194555;28;20205;-81
2022/10/17 10:11:46;;;;;;;2.57;1.67;;;20.50;99.90;;;;;;4194072;28;20226;-80
2022/10/17 10:13:50;;;;;;;3.87;1.93;;;20.70;99.90;;;;;;4193975;28;20809;-80
2022/10/17 10:15:52;;;;;;;8.50;1.90;;;20.80;99.90;;;;;;4194445;28;20198;-80
2022/10/17 10:17:54;;;;;;;3.40;1.83;;;20.90;99.90;;;;;;4197642;28;20247;-80
2022/10/17 10:19:56;;;;;;;5.33;1.77;;;21.10;99.90;;;;;;4195502;28;20220;-82
2022/10/17 10:22:04;;;;;;;4.70;1.80;;;21.20;99.90;;;;;;4213422;28;20219;-82
2022/10/17 10:24:12;;;;;;;2.07;1.60;;;21.30;99.90;;;;;;4192990;28;20207;-81
2022/10/17 10:26:21;;;;;;;3.47;1.77;;;21.50;99.90;;;;;;4195357;28;20259;-81
2022/10/17 10:28:27;;;;;;;2.13;1.57;;;21.60;99.90;;;;;;4194292;28;20203;-83
2022/10/17 10:30:31;;;;;;;2.03;1.60;;;21.80;99.90;;;;;;4196174;28;20212;-81
2022/10/17 10:32:36;;;;;;;2.70;1.83;;;21.90;99.90;;;;;;4194815;28;20216;-81
2022/10/17 10:34:44;;;;;;;2.37;1.73;;;22.10;99.90;;;;;;4193595;28;20291;-82
2022/10/17 10:36:54;;;;;;;2.40;1.70;;;22.20;99.90;;;;;;4196647;28;20227;-81
2022/10/17 10:38:58;;;;;;;3.60;1.63;;;22.30;99.90;;;;;;4197642;28;20282;-81
2022/10/17 10:41:04;;;;;;;3.40;1.97;;;22.40;99.90;;;;;;4189605;28;20238;-81
2022/10/17 10:43:07;;;;;;;2.53;1.60;;;22.60;99.90;;;;;;4190957;28;20210;-81
2022/10/17 10:45:17;;;;;;;4.17;1.70;;;22.70;99.90;;;;;;4194345;28;20221;-81
2022/10/17 10:47:23;;;;;;;2.53;1.27;;;22.80;99.90;;;;;;4212060;28;20647;-81
2022/10/17 10:49:30;;;;;;;2.10;1.30;;;22.80;99.90;;;;;;4195961;28;20209;-80
2022/10/17 10:51:37;;;;;;;5.47;1.70;;;22.90;99.90;;;;;;4194689;28;20319;-82